Tuolumne, CA (95379)

2:59 AM PDT on October 21, 2014 (GMT -0700)
Willow Springs | Change Station
CLOSE
Current Station
Personal Weather Station
Location: Soulsbyville, CA
Elevation: 3422 ft
Nearby Weather Stations

Elev 3422 ft 38.01 °N, 120.26 °W | Updated 1 minute ago

Clear
Clear
48.8 °F
Feels Like 49 °F
N
0.0
Wind Variable Wind from NE
Gusts 0.0 mph

Today
High -- | Low -- °F
--% Chance of Precip.
Yesterday
High -- | Low -- °F
Precip. -- in
7:15 AM 6:15 PM
Waning Crescent, 6% visible
Pressure 30.06 in
Visibility 10.0 miles
Clouds Clear
Windchill 49 °F
Dew Point 42 °F
Humidity 76%
Rainfall 0.00 in
Snow Depth Not available.
UV 0 out of 12
Pollen 4.00 out of 12
Ozone Good
Flu Activity Sporadic
METAR KO22 210935Z AUTO 00000KT 10SM CLR 07/06 A3006 RMK AO1

More Conditions Fewer Conditions

Pressure 30.06 in
Visibility 10.0 miles
Clouds Clear
Windchill 49 °F
Dew Point 42 °F
Humidity 76%
Rainfall 0.00 in
Snow Depth Not available.
UV 0 out of 12
Pollen 4.00 out of 12
Ozone Good
Flu Activity Sporadic
METAR KO22 210935Z AUTO 00000KT 10SM CLR 07/06 A3006 RMK AO1

More Conditions Fewer Conditions

10-Day Weather Forecast

Almanac

Astronomy

Oct. 21, 2014 Rise Set
Actual Time 7:15 AM PDT 6:15 PM PDT
Civil Twilight 6:48 AM PDT 6:41 PM PDT
Nautical Twilight 6:18 AM PDT 7:12 PM PDT
Astronomical Twilight 5:47 AM PDT 7:42 PM PDT
Moon 5:06 AM PDT 5:10 PM PDT
Length of Visible Light 11h 53m
Length of Day
10h 59m
Tomorrow will be 2m 18s shorter.
Waning Crescent, 6% of the Moon is Illuminated
Today
Waning Crescent
Oct 23
New
Oct 30
First Quarter
Nov 6
Full
Nov 14
Last Quarter

Today's Extremes

State Highs State Lows

Community

WunderPhotos

Upload Photos

1,763,619 photos uploaded!

Nearby

Air Quality

  Air Quality AQ Index Pollutant
Yesterday Good
OZONE
Current Good
OZONE
Tuesday Good
OZONE
Wednesday Good
OZONE
Thursday Good
OZONE
Friday Good
OZONE
Saturday Good
OZONE

Snow Depth

Station Depth Elevation
Leavitt Lake 1 in 9400 ft
Sonora Pass 0 in 8800 ft
Leavitt Meadows 1 in 7200 ft
Blue Lakes 0 in 8000 ft
Summit Meadow 2 in 9122 ft

Earthquake Activity

City Distance Mag. Time & Date
Mammoth Lakes, California 86 miles 3.0 11:10 PM PDT
2014-10-20
Lone Pine, California 159 miles 2.6 5:26 AM PDT
2014-10-19
Dixon Lane-Meadow Creek, California 102 miles 2.6 5:32 PM PDT
2014-10-18
Smith Valley, Nevada 65 miles 2.9 10:59 AM PDT
2014-10-18
Minimum magnitude displayed is 2.5.

Coastal Water Temperatures

Place Temperature
No Stations Reporting

Nearby Weather Stations